Rixensart, Belgium
Current Conditions -  °F | °C
As of 5:25 PM on Friday 31 Oct 2014 (Local Time) from EBBE Reporting Station
Broken Clouds Broken Clouds  
Wind Chill: 63°   Ceiling: 22000
Heat Index: 63°   Visibility: 6mi
Dew Point: 54°   Wind: 2mph
Humidity: 72%   Direction: NA
Pressure: 30.15"   Gusts: NA
Location:  50.71°N, 4.53°E
Report Text: EBBE 311625Z VRB02KT 9999 FEW100 BKN220 17/12 Q1021 BLU
Loading
Personal Weather Stations






























Interactive Weather Map
Tropical Storm Tracking
New forecast layout! Learn more

10-Day Weather Forecast

Advertisements
Track Severe Weather on mobile